createdAt,value
2018-06-23T00:01:52.274Z,20.75
2018-06-23T00:06:34.565Z,21.33
2018-06-23T00:11:13.082Z,20.95
2018-06-23T00:15:55.277Z,20.59
2018-06-23T00:20:33.837Z,21.13
2018-06-23T00:25:18.869Z,21.57
2018-06-23T00:29:57.407Z,21.52
2018-06-23T00:34:39.241Z,21.67
2018-06-23T00:39:17.883Z,21.05
2018-06-23T00:43:56.367Z,21.53
2018-06-23T00:48:38.499Z,21.66
2018-06-23T00:53:16.982Z,21.60
2018-06-23T00:57:56.696Z,21.88
2018-06-23T01:02:35.297Z,21.79
2018-06-23T01:07:19.461Z,21.80
2018-06-23T01:11:58.043Z,21.22
2018-06-23T01:16:41.995Z,20.92
2018-06-23T01:21:20.454Z,20.52
2018-06-23T01:26:00.134Z,20.34
2018-06-23T01:30:38.703Z,20.56
2018-06-23T01:35:18.280Z,20.58
2018-06-23T01:39:56.945Z,20.63
2018-06-23T01:44:40.909Z,20.58
2018-06-23T01:49:19.519Z,20.58
2018-06-23T01:53:58.166Z,20.60
2018-06-23T01:58:37.796Z,20.63
2018-06-23T02:03:16.370Z,20.59
2018-06-23T02:07:59.821Z,20.68
2018-06-23T02:12:38.417Z,20.66
2018-06-23T02:17:25.932Z,20.72
2018-06-23T02:22:09.794Z,20.59
2018-06-23T02:26:54.668Z,20.71
2018-06-23T02:31:38.485Z,20.67
2018-06-23T02:36:20.564Z,20.55
2018-06-23T02:40:59.092Z,20.46
2018-06-23T02:45:41.058Z,20.42
2018-06-23T02:50:19.651Z,20.48
2018-06-23T02:55:02.005Z,20.47
2018-06-23T02:59:40.481Z,20.50
2018-06-23T03:04:20.116Z,20.44
2018-06-23T03:08:58.690Z,20.39
2018-06-23T03:13:37.204Z,20.44
2018-06-23T03:18:19.615Z,20.45
2018-06-23T03:22:58.146Z,20.49
2018-06-23T03:27:37.777Z,20.60
2018-06-23T03:32:16.360Z,20.53
2018-06-23T03:36:56.055Z,20.62
2018-06-23T03:41:34.625Z,20.62
2018-06-23T03:46:14.575Z,20.62
2018-06-23T03:50:53.199Z,20.39
2018-06-23T03:55:35.350Z,19.69
2018-06-23T04:00:13.942Z,19.39
2018-06-23T04:04:53.664Z,19.26
2018-06-23T04:09:32.238Z,19.17
2018-06-23T04:14:14.529Z,18.93
2018-06-23T04:18:56.653Z,18.92
2018-06-23T04:23:35.293Z,18.84
2018-06-23T04:28:13.997Z,18.73
2018-06-23T04:32:52.608Z,17.99
2018-06-23T04:37:31.269Z,17.92
2018-06-23T04:42:09.797Z,17.97
2018-06-23T04:46:48.526Z,17.72
2018-06-23T04:51:27.161Z,17.70
2018-06-23T04:56:05.650Z,17.72
2018-06-23T05:00:44.182Z,17.81
2018-06-23T05:05:26.528Z,17.58
2018-06-23T05:10:05.055Z,17.64
2018-06-23T05:14:44.687Z,17.57
2018-06-23T05:20:52.458Z,17.41
2018-06-23T05:25:32.074Z,17.17
2018-06-23T05:30:10.741Z,17.29
2018-06-23T05:34:53.041Z,17.21
2018-06-23T05:39:34.330Z,17.04
2018-06-23T05:44:15.325Z,17.32
2018-06-23T05:48:54.677Z,17.06
2018-06-23T05:53:36.880Z,17.17
2018-06-23T05:58:15.512Z,17.30
2018-06-23T06:02:54.170Z,17.15
2018-06-23T06:07:35.722Z,17.36
2018-06-23T06:12:28.926Z,17.21
2018-06-23T06:17:29.672Z,17.22
2018-06-23T06:22:08.239Z,17.18
2018-06-23T06:26:47.063Z,17.30
2018-06-23T06:31:25.656Z,17.00
2018-06-23T06:36:05.991Z,17.08
2018-06-23T06:40:45.543Z,17.30
2018-06-23T06:45:27.658Z,17.10
2018-06-23T06:50:06.346Z,17.33
2018-06-23T06:54:46.992Z,17.43
2018-06-23T06:59:25.637Z,17.78
2018-06-23T07:04:07.676Z,17.72
2018-06-23T07:08:46.343Z,17.83
2018-06-23T07:13:25.973Z,17.92
2018-06-23T07:18:04.609Z,17.91
2018-06-23T07:22:44.055Z,17.95
2018-06-23T07:27:26.252Z,18.02
2018-06-23T07:32:05.324Z,17.75
2018-06-23T07:36:44.979Z,17.86
2018-06-23T07:41:23.641Z,17.65
2018-06-23T07:46:05.197Z,17.93
2018-06-23T07:50:45.620Z,17.76
2018-06-23T07:55:25.115Z,17.92
2018-06-23T08:00:03.475Z,17.94
2018-06-23T08:04:44.860Z,18.03
2018-06-23T08:09:23.417Z,18.21
2018-06-23T08:14:02.190Z,18.56
2018-06-23T08:18:40.810Z,18.34
2018-06-23T08:23:20.154Z,18.53
2018-06-23T08:27:58.677Z,18.48
2018-06-23T08:32:37.330Z,18.47
2018-06-23T08:37:17.157Z,18.44
2018-06-23T08:41:55.698Z,18.21
2018-06-23T08:46:34.485Z,18.39
2018-06-23T08:51:12.991Z,18.35
2018-06-23T08:55:54.690Z,18.78
2018-06-23T09:00:33.222Z,18.70
2018-06-23T09:05:12.995Z,18.67
2018-06-23T09:09:51.438Z,18.68
2018-06-23T09:14:30.333Z,18.97
2018-06-23T09:19:08.921Z,19.00
2018-06-23T09:23:47.553Z,19.19
2018-06-23T09:28:26.093Z,19.27
2018-06-23T09:33:04.572Z,19.43
2018-06-23T09:37:43.005Z,19.67
2018-06-23T09:42:21.758Z,20.47
2018-06-23T09:47:00.425Z,19.40
2018-06-23T09:51:39.007Z,20.21
2018-06-23T09:56:17.943Z,20.69
2018-06-23T10:00:56.516Z,20.78
2018-06-23T10:05:34.982Z,20.65
2018-06-23T10:10:13.543Z,20.21
2018-06-23T10:14:56.363Z,19.54
2018-06-23T10:19:35.011Z,19.89
2018-06-23T10:24:17.017Z,19.70
2018-06-23T10:28:55.408Z,20.03
2018-06-23T10:33:35.004Z,20.81
2018-06-23T10:38:13.731Z,20.01
2018-06-23T10:42:52.321Z,20.20
2018-06-23T10:47:30.898Z,19.62
2018-06-23T10:52:09.568Z,19.82
2018-06-23T10:56:49.478Z,19.93
2018-06-23T11:01:28.083Z,19.45
2018-06-23T11:06:09.691Z,19.33
2018-06-23T11:10:48.517Z,18.64
2018-06-23T11:15:27.380Z,18.50
2018-06-23T11:20:11.262Z,17.93
2018-06-23T11:24:52.870Z,17.99
2018-06-23T11:29:31.318Z,17.74
2018-06-23T11:34:10.030Z,17.44
2018-06-23T11:38:48.533Z,17.21
2018-06-23T11:43:27.283Z,17.45
2018-06-23T11:48:05.730Z,17.36
2018-06-23T11:52:45.435Z,17.12
2018-06-23T11:57:24.197Z,17.21
2018-06-23T12:02:02.817Z,16.92
2018-06-23T12:06:41.418Z,17.02
2018-06-23T12:11:21.013Z,17.55
2018-06-23T12:15:59.595Z,17.68
2018-06-23T12:20:38.172Z,18.04
2018-06-23T12:25:20.592Z,17.82
2018-06-23T12:29:59.110Z,18.87
2018-06-23T12:34:41.356Z,18.28
2018-06-23T12:39:19.984Z,19.04
2018-06-23T12:43:58.746Z,20.42
2018-06-23T12:48:37.357Z,19.92
2018-06-23T12:53:19.426Z,20.16
2018-06-23T12:57:58.035Z,20.04
2018-06-23T13:02:40.220Z,21.08
2018-06-23T13:07:18.779Z,20.44
2018-06-23T13:11:57.418Z,20.68
2018-06-23T13:16:39.513Z,21.17
2018-06-23T13:21:17.991Z,21.61
2018-06-23T13:25:57.703Z,20.73
2018-06-23T13:30:36.333Z,20.35
2018-06-23T13:35:16.935Z,20.34
2018-06-23T13:39:55.540Z,21.16
2018-06-23T13:44:37.592Z,21.04
2018-06-23T13:49:16.232Z,20.83
2018-06-23T13:53:54.836Z,20.50
2018-06-23T13:58:33.300Z,20.33
2018-06-23T14:03:12.941Z,20.64
2018-06-23T14:07:51.596Z,20.10
2018-06-23T14:12:31.287Z,20.41
2018-06-23T14:17:09.826Z,20.22
2018-06-23T14:21:49.515Z,20.17
2018-06-23T14:26:33.742Z,20.49
2018-06-23T14:31:12.329Z,20.19
2018-06-23T14:35:52.239Z,20.13
2018-06-23T14:40:30.722Z,20.53
2018-06-23T14:45:10.803Z,20.42
2018-06-23T14:49:49.481Z,20.47
2018-06-23T14:54:32.346Z,20.70
2018-06-23T14:59:12.116Z,20.63
2018-06-23T15:03:50.737Z,20.86
2018-06-23T15:08:39.974Z,20.92
2018-06-23T15:13:22.188Z,20.96
2018-06-23T15:18:02.377Z,21.02
2018-06-23T15:22:43.317Z,21.02
2018-06-23T15:27:22.015Z,20.90
2018-06-23T15:32:00.454Z,20.98
2018-06-23T15:36:39.084Z,21.42
2018-06-23T15:41:17.744Z,21.15
2018-06-23T15:46:01.080Z,21.07
2018-06-23T15:50:39.747Z,21.05
2018-06-23T15:55:21.619Z,20.88
2018-06-23T16:00:00.265Z,21.00
2018-06-23T16:04:41.978Z,20.75
2018-06-23T16:09:20.426Z,20.44
2018-06-23T16:14:03.039Z,20.41
2018-06-23T16:18:41.793Z,20.77
2018-06-23T16:23:24.128Z,20.87
2018-06-23T16:28:02.585Z,21.02
2018-06-23T16:32:44.370Z,20.29
2018-06-23T16:37:22.949Z,20.36
2018-06-23T16:42:05.593Z,20.46
2018-06-23T16:46:44.191Z,20.23
2018-06-23T16:51:22.789Z,20.30
2018-06-23T16:56:02.618Z,20.13
2018-06-23T17:00:41.213Z,19.90
2018-06-23T17:05:20.037Z,19.96
2018-06-23T17:09:58.536Z,20.06
2018-06-23T17:14:40.551Z,20.23
2018-06-23T17:19:19.514Z,19.96
2018-06-23T17:24:03.453Z,19.66
2018-06-23T17:28:42.579Z,19.66
2018-06-23T17:33:25.859Z,19.68
2018-06-23T17:38:05.678Z,19.92
2018-06-23T17:42:48.305Z,19.38
2018-06-23T17:47:27.345Z,19.43
2018-06-23T17:52:07.691Z,19.22
2018-06-23T17:56:47.476Z,19.20
2018-06-23T18:01:26.538Z,18.98
2018-06-23T18:06:17.414Z,19.27
2018-06-23T18:10:56.396Z,18.94
2018-06-23T18:15:36.713Z,18.39
2018-06-23T18:20:17.393Z,17.95
2018-06-23T18:24:59.647Z,17.58
2018-06-23T18:29:38.808Z,17.47
2018-06-23T18:34:20.497Z,17.36
2018-06-23T18:38:59.157Z,17.58
2018-06-23T18:43:41.676Z,17.96
2018-06-23T18:48:20.267Z,18.08
2018-06-23T18:53:01.989Z,17.82
2018-06-23T18:57:40.602Z,17.29
2018-06-23T19:02:22.783Z,17.21
2018-06-23T19:07:01.697Z,16.95
2018-06-23T19:11:41.868Z,16.70
2018-06-23T19:16:20.909Z,16.62
2018-06-23T19:20:59.944Z,16.51
2018-06-23T19:25:39.550Z,16.46
2018-06-23T19:30:18.140Z,16.43
2018-06-23T19:34:59.717Z,16.76
2018-06-23T19:39:38.328Z,17.24
2018-06-23T19:44:18.016Z,17.74
2018-06-23T19:48:56.518Z,17.21
2018-06-23T19:53:36.557Z,17.56
2018-06-23T19:58:15.060Z,17.43
2018-06-23T20:02:53.738Z,17.03
2018-06-23T20:07:32.553Z,17.33
2018-06-23T20:12:12.311Z,17.44
2018-06-23T20:16:50.902Z,17.27
2018-06-23T20:21:29.406Z,17.69
2018-06-23T20:26:07.963Z,16.79
2018-06-23T20:30:47.407Z,16.68
2018-06-23T20:35:26.573Z,17.52
2018-06-23T20:40:05.646Z,16.93
2018-06-23T20:44:44.258Z,17.24
2018-06-23T20:49:22.882Z,17.66
2018-06-23T20:54:01.561Z,17.70
2018-06-23T20:58:40.218Z,17.13
2018-06-23T21:03:18.949Z,17.03
2018-06-23T21:07:58.146Z,16.88
2018-06-23T21:12:36.770Z,17.38
2018-06-23T21:17:15.421Z,17.53
2018-06-23T21:21:54.179Z,17.52
2018-06-23T21:26:32.776Z,17.68
2018-06-23T21:31:11.386Z,17.74
2018-06-23T21:35:49.868Z,17.63
2018-06-23T21:40:28.955Z,17.54
2018-06-23T21:45:09.249Z,17.62
2018-06-23T21:49:47.787Z,17.47
2018-06-23T21:54:26.709Z,17.52
2018-06-23T21:59:05.226Z,16.78
2018-06-23T22:03:46.979Z,17.55
2018-06-23T22:08:25.615Z,16.78
2018-06-23T22:13:04.893Z,17.23
2018-06-23T22:17:43.720Z,16.29
2018-06-23T22:22:22.500Z,17.41
2018-06-23T22:27:00.998Z,17.79
2018-06-23T22:31:39.869Z,16.65
2018-06-23T22:36:18.437Z,17.34
2018-06-23T22:40:56.921Z,17.48
2018-06-23T22:45:35.490Z,17.19
2018-06-23T22:50:14.136Z,17.26
2018-06-23T22:54:53.701Z,17.11
2018-06-23T22:59:32.221Z,16.98
2018-06-23T23:04:11.053Z,15.84
2018-06-23T23:08:49.746Z,16.95
2018-06-23T23:13:28.566Z,17.21
2018-06-23T23:18:07.188Z,17.09
2018-06-23T23:22:45.914Z,15.97
2018-06-23T23:27:24.392Z,16.01
2018-06-23T23:32:03.216Z,15.78
2018-06-23T23:36:41.742Z,15.18
2018-06-23T23:41:21.604Z,15.35
2018-06-23T23:46:00.017Z,16.17
2018-06-23T23:50:38.537Z,16.48
2018-06-23T23:55:20.177Z,14.78
2018-06-23T23:59:58.682Z,14.78
